createdAt,value
2023-04-14T00:03:52.129Z,1.83
2023-04-14T00:08:58.676Z,1.90
2023-04-14T00:14:03.204Z,1.65
2023-04-14T00:19:06.078Z,1.64
2023-04-14T00:24:13.911Z,1.62
2023-04-14T00:29:17.070Z,1.61
2023-04-14T00:34:19.734Z,1.60
2023-04-14T00:39:43.113Z,1.46
2023-04-14T00:44:48.058Z,1.37
2023-04-14T00:49:51.286Z,1.34
2023-04-14T00:54:55.950Z,1.29
2023-04-14T01:00:01.624Z,1.27
2023-04-14T01:05:05.952Z,1.20
2023-04-14T01:10:11.528Z,1.20
2023-04-14T01:15:26.031Z,1.16
2023-04-14T01:20:34.458Z,1.26
2023-04-14T01:26:09.476Z,1.37
2023-04-14T01:31:25.093Z,1.20
2023-04-14T01:36:39.976Z,1.23
2023-04-14T01:42:07.713Z,1.00
2023-04-14T01:47:16.482Z,1.04
2023-04-14T01:52:20.469Z,0.97
2023-04-14T01:57:26.492Z,0.93
2023-04-14T02:02:31.972Z,0.89
2023-04-14T02:07:36.466Z,0.85
2023-04-14T02:12:43.231Z,0.71
2023-04-14T02:17:51.844Z,0.95
2023-04-14T02:22:54.891Z,0.96
2023-04-14T02:28:01.443Z,0.86
2023-04-14T02:33:17.949Z,0.84
2023-04-14T02:38:44.607Z,0.92
2023-04-14T02:43:52.342Z,1.02
2023-04-14T02:49:00.781Z,1.06
2023-04-14T02:54:04.614Z,1.10
2023-04-14T02:59:08.410Z,0.97
2023-04-14T03:04:14.997Z,0.99
2023-04-14T03:09:20.179Z,0.89
2023-04-14T03:14:24.065Z,0.91
2023-04-14T03:19:29.494Z,0.91
2023-04-14T03:24:35.326Z,1.07
2023-04-14T03:29:44.250Z,1.25
2023-04-14T03:34:51.082Z,1.04
2023-04-14T03:40:16.407Z,1.02
2023-04-14T03:45:21.212Z,0.90
2023-04-14T03:50:31.735Z,0.92
2023-04-14T03:55:36.984Z,0.97
2023-04-14T04:00:41.465Z,0.84
2023-04-14T04:05:46.531Z,0.57
2023-04-14T04:10:49.934Z,0.66
2023-04-14T04:15:55.817Z,0.64
2023-04-14T04:21:01.799Z,0.52
2023-04-14T04:26:23.837Z,0.45
2023-04-14T04:31:30.051Z,0.32
2023-04-14T04:36:36.071Z,0.36
2023-04-14T04:41:39.890Z,0.20
2023-04-14T04:46:51.508Z,0.08
2023-04-14T04:51:59.771Z,0.03
2023-04-14T04:57:03.782Z,0.07
2023-04-14T05:02:08.871Z,0.15
2023-04-14T05:07:13.177Z,0.30
2023-04-14T05:12:15.759Z,0.36
2023-04-14T05:17:18.343Z,0.44
2023-04-14T05:22:22.208Z,0.66
2023-04-14T05:27:24.802Z,0.80
2023-04-14T05:32:29.220Z,1.07
2023-04-14T05:37:35.671Z,1.23
2023-04-14T05:42:40.933Z,1.59
2023-04-14T05:47:44.054Z,1.95
2023-04-14T05:53:08.817Z,2.14
2023-04-14T05:58:12.625Z,2.33
2023-04-14T06:03:16.612Z,2.49
2023-04-14T06:08:22.078Z,2.67
2023-04-14T06:13:25.904Z,2.85
2023-04-14T06:18:31.529Z,3.03
2023-04-14T06:23:36.603Z,3.25
2023-04-14T06:28:40.245Z,4.09
2023-04-14T06:33:44.136Z,5.82
2023-04-14T06:38:48.385Z,8.02
2023-04-14T06:43:53.273Z,9.30
2023-04-14T06:48:55.947Z,10.43
2023-04-14T06:54:02.350Z,11.08
2023-04-14T06:59:05.214Z,11.22
2023-04-14T07:04:08.362Z,11.87
2023-04-14T07:09:36.833Z,12.98
2023-04-14T07:14:41.384Z,12.52
2023-04-14T07:19:44.680Z,13.13
2023-04-14T07:24:50.006Z,13.43
2023-04-14T07:29:53.633Z,14.43
2023-04-14T07:34:59.300Z,14.87
2023-04-14T07:40:03.477Z,15.34
2023-04-14T07:45:08.191Z,15.84
2023-04-14T07:50:12.031Z,15.56
2023-04-14T07:55:20.447Z,15.87
2023-04-14T08:00:25.943Z,16.88
2023-04-14T08:05:31.994Z,16.90
2023-04-14T08:10:37.100Z,17.64
2023-04-14T08:15:42.086Z,17.67
2023-04-14T08:20:47.000Z,18.25
2023-04-14T08:25:53.186Z,18.31
2023-04-14T08:30:59.924Z,18.73
2023-04-14T08:36:04.066Z,19.08
2023-04-14T08:41:29.433Z,18.76
2023-04-14T08:46:33.056Z,19.09
2023-04-14T08:51:58.864Z,19.17
2023-04-14T08:57:04.774Z,19.19
2023-04-14T09:02:16.216Z,19.12
2023-04-14T09:07:37.240Z,19.67
2023-04-14T09:12:44.037Z,19.44
2023-04-14T09:17:46.895Z,19.09
2023-04-14T09:22:49.771Z,19.04
2023-04-14T09:27:54.411Z,19.71
2023-04-14T09:32:58.441Z,19.63
2023-04-14T09:38:01.446Z,19.68
2023-04-14T09:43:05.675Z,20.07
2023-04-14T09:48:12.925Z,19.55
2023-04-14T09:53:16.817Z,20.32
2023-04-14T09:58:25.284Z,19.16
2023-04-14T10:03:36.283Z,18.99
2023-04-14T10:08:41.120Z,18.36
2023-04-14T10:14:07.446Z,16.51
2023-04-14T10:19:10.666Z,18.05
2023-04-14T10:24:13.499Z,15.79
2023-04-14T10:29:17.935Z,15.92
2023-04-14T10:34:54.843Z,17.82
2023-04-14T10:40:01.343Z,18.63
2023-04-14T10:45:10.323Z,16.74
2023-04-14T10:50:14.372Z,15.65
2023-04-14T10:55:18.043Z,16.96
2023-04-14T11:00:31.976Z,16.28
2023-04-14T11:05:39.389Z,17.65
2023-04-14T11:10:44.672Z,17.57
2023-04-14T11:15:51.451Z,18.19
2023-04-14T11:20:54.534Z,18.88
2023-04-14T11:25:58.677Z,18.65
2023-04-14T11:31:06.650Z,18.08
2023-04-14T11:36:13.163Z,18.54
2023-04-14T11:41:17.232Z,18.17
2023-04-14T11:46:25.288Z,16.51
2023-04-14T11:51:35.483Z,16.64
2023-04-14T11:56:39.377Z,16.28
2023-04-14T12:01:53.478Z,18.70
2023-04-14T12:06:58.728Z,18.98
2023-04-14T12:12:04.620Z,19.18
2023-04-14T12:17:10.347Z,18.61
2023-04-14T12:22:13.287Z,18.52
2023-04-14T12:27:22.687Z,17.58
2023-04-14T12:32:29.855Z,18.24
2023-04-14T12:37:34.335Z,18.53
2023-04-14T12:42:49.128Z,19.10
2023-04-14T12:47:57.630Z,18.23
2023-04-14T12:53:02.266Z,18.58
2023-04-14T12:58:07.230Z,18.36
2023-04-14T13:03:11.564Z,19.39
2023-04-14T13:08:14.694Z,19.67
2023-04-14T13:13:21.324Z,19.97
2023-04-14T13:18:35.411Z,19.84
2023-04-14T13:23:41.222Z,19.85
2023-04-14T13:28:43.956Z,18.79
2023-04-14T13:33:52.077Z,17.59
2023-04-14T13:38:58.003Z,17.60
2023-04-14T13:44:02.011Z,17.63
2023-04-14T13:49:07.079Z,16.69
2023-04-14T13:54:11.387Z,16.52
2023-04-14T13:59:18.450Z,17.94
2023-04-14T14:04:25.093Z,17.65
2023-04-14T14:09:28.364Z,17.32
2023-04-14T14:14:31.561Z,16.68
2023-04-14T14:19:37.738Z,18.52
2023-04-14T14:24:44.820Z,19.97
2023-04-14T14:29:51.322Z,19.70
2023-04-14T14:34:56.654Z,19.97
2023-04-14T14:39:59.439Z,20.44
2023-04-14T14:45:04.615Z,19.74
2023-04-14T14:50:12.980Z,17.54
2023-04-14T14:55:15.929Z,16.93
2023-04-14T15:00:19.602Z,18.00
2023-04-14T15:05:24.842Z,16.72
2023-04-14T15:10:28.843Z,16.37
2023-04-14T15:15:35.185Z,17.53
2023-04-14T15:20:39.367Z,17.82
2023-04-14T15:25:43.061Z,17.32
2023-04-14T15:30:49.825Z,16.22
2023-04-14T15:35:53.946Z,15.56
2023-04-14T15:40:58.085Z,15.17
2023-04-14T15:46:01.754Z,14.79
2023-04-14T15:51:06.798Z,14.46
2023-04-14T15:56:23.300Z,15.64
2023-04-14T16:01:26.368Z,16.27
2023-04-14T16:06:30.793Z,17.24
2023-04-14T16:11:34.126Z,17.58
2023-04-14T16:16:36.900Z,17.81
2023-04-14T16:21:43.126Z,18.14
2023-04-14T16:26:48.103Z,18.51
2023-04-14T16:31:54.197Z,19.22
2023-04-14T16:36:59.849Z,19.80
2023-04-14T16:42:06.711Z,18.87
2023-04-14T16:47:09.319Z,18.16
2023-04-14T16:52:19.595Z,17.87
2023-04-14T16:57:23.867Z,17.95
2023-04-14T17:02:27.222Z,17.59
2023-04-14T17:07:32.036Z,17.28
2023-04-14T17:12:43.042Z,17.41
2023-04-14T17:17:46.539Z,16.86
2023-04-14T17:22:50.879Z,16.15
2023-04-14T17:28:17.900Z,15.40
2023-04-14T17:33:22.073Z,14.84
2023-04-14T17:38:25.057Z,14.64
2023-04-14T17:43:29.103Z,14.50
2023-04-14T17:48:32.050Z,14.24
2023-04-14T17:53:38.186Z,13.92
2023-04-14T17:58:43.481Z,13.40
2023-04-14T18:03:48.483Z,12.92
2023-04-14T18:08:51.544Z,12.45
2023-04-14T18:13:56.959Z,12.05
2023-04-14T18:19:02.313Z,11.58
2023-04-14T18:29:12.941Z,10.85
2023-04-14T18:34:16.893Z,10.38
2023-04-14T18:39:22.393Z,9.94
2023-04-14T18:44:47.704Z,9.55
2023-04-14T18:49:53.550Z,9.21
2023-04-14T18:54:56.307Z,9.01
2023-04-14T19:00:07.071Z,8.83
2023-04-14T19:05:12.026Z,8.77
2023-04-14T19:10:15.573Z,8.83
2023-04-14T19:15:19.996Z,8.91
2023-04-14T19:20:24.614Z,8.85
2023-04-14T19:25:27.568Z,8.83
2023-04-14T19:30:32.820Z,8.58
2023-04-14T19:35:44.197Z,8.34
2023-04-14T19:40:49.534Z,8.09
2023-04-14T19:46:04.577Z,7.93
2023-04-14T19:51:09.360Z,7.87
2023-04-14T19:56:15.688Z,7.70
2023-04-14T20:01:24.282Z,7.56
2023-04-14T20:06:30.780Z,7.43
2023-04-14T20:11:33.538Z,7.16
2023-04-14T20:16:43.026Z,7.13
2023-04-14T20:21:45.718Z,7.06
2023-04-14T20:26:49.543Z,6.99
2023-04-14T20:31:55.930Z,6.92
2023-04-14T20:36:59.154Z,6.76
2023-04-14T20:42:02.400Z,6.68
2023-04-14T20:47:06.657Z,6.62
2023-04-14T20:52:13.028Z,6.45
2023-04-14T20:57:15.756Z,6.35
2023-04-14T21:02:20.266Z,6.25
2023-04-14T21:07:24.688Z,6.10
2023-04-14T21:14:52.107Z,6.00
2023-04-14T21:18:13.217Z,5.97
2023-04-14T21:23:17.144Z,5.95
2023-04-14T21:28:19.805Z,5.90
2023-04-14T21:33:26.350Z,5.91
2023-04-14T21:38:29.561Z,5.89
2023-04-14T21:43:33.334Z,5.88
2023-04-14T21:48:37.559Z,6.01
2023-04-14T21:53:42.094Z,6.07
2023-04-14T21:58:46.841Z,6.08
2023-04-14T22:03:51.962Z,6.01
2023-04-14T22:08:55.026Z,5.99
2023-04-14T22:14:15.810Z,5.91
2023-04-14T22:19:20.154Z,5.98
2023-04-14T22:24:24.142Z,5.80
2023-04-14T22:29:27.303Z,5.76
2023-04-14T22:34:36.017Z,5.75
2023-04-14T22:39:39.370Z,5.67
2023-04-14T22:44:43.184Z,5.53
2023-04-14T22:49:47.595Z,5.46
2023-04-14T22:54:52.493Z,5.45
2023-04-14T22:59:55.201Z,5.36
2023-04-14T23:04:59.742Z,5.21
2023-04-14T23:10:03.662Z,5.35
2023-04-14T23:15:09.375Z,5.23
2023-04-14T23:20:15.634Z,5.08
2023-04-14T23:25:22.510Z,5.19
2023-04-14T23:30:26.309Z,5.14
2023-04-14T23:35:30.955Z,5.12
2023-04-14T23:40:37.657Z,5.11
2023-04-14T23:45:40.671Z,5.26
2023-04-14T23:51:00.775Z,5.28
2023-04-14T23:56:08.874Z,5.22
